Latest Weather Observations for Ngukurr AWS

IDD60801

Issued at 5:05 pm CST Saturday 25 October 2014 (issued every 30 minutes, with the page automatically refreshed every 10 minutes)

About weather observations | Map of weather stations | Latest weather observations for NT | Other Formats
Station Details ID: 014299 Name: NGUKURR AIRPORT Lat: -14.72 Lon: 134.75 Height: 14.46 m
Data from the previous 72 hours. | See also: Recent months at Ngukurr AWS
Date/Time
CST
Temp
°C
App
Temp
°C
Dew
Point
Rel
Hum
%
Delta-T
°C
Wind Press
QNH
hPa
Press
MSL
hPa
Rain
since 9 am
mm
Dir
 
Spd
km/h
Gust
km/h
Spd
kts
Gust
kts
25/05:00pm 34.7 29.6 6.1 17 15.6 E 22 37 12 20 1012.0 1011.9 0.0
25/04:30pm 35.8 30.3 4.2 14 16.8 E 22 32 12 17 1011.8 1011.7 0.0
25/04:00pm 35.7 29.5 4.1 14 16.7 E 26 35 14 19 1011.8 1011.7 0.0
25/03:30pm 36.2 30.2 5.5 15 16.7 E 26 43 14 23 1011.8 1011.7 0.0
25/03:00pm 36.5 30.2 3.7 13 17.3 E 26 44 14 24 1011.8 1011.7 0.0
25/02:30pm 37.0 31.1 4.0 13 17.6 E 24 46 13 25 1012.2 1012.1 0.0
25/02:00pm 36.7 32.0 7.7 17 16.3 ESE 22 35 12 19 1012.5 1012.4 0.0
25/01:30pm 36.4 32.0 7.4 17 16.2 ESE 20 39 11 21 1012.7 1012.6 0.0
25/01:00pm 36.4 32.6 7.4 17 16.2 ESE 17 22 9 12 1013.3 1013.2 0.0
25/12:30pm 35.1 31.6 10.2 22 14.5 E 19 30 10 16 1013.8 1013.7 0.0
25/12:00pm 35.2 32.5 11.6 24 14.0 NNE 17 22 9 12 1014.4 1014.3 0.0
25/11:30am 34.7 30.7 10.5 23 14.1 ENE 22 32 12 17 1014.8 1014.7 0.0
25/11:00am 34.4 30.7 10.3 23 14.0 NE 20 30 11 16 1015.1 1015.0 0.0
25/10:30am 33.9 30.3 10.5 24 13.6 ENE 20 32 11 17 1015.3 1015.2 0.0
25/10:00am 34.3 30.2 10.2 23 13.9 ENE 22 32 12 17 1015.3 1015.2 0.0
25/09:30am 32.4 31.9 12.6 30 11.8 ENE 7 13 4 7 1015.3 1015.2 0.0
25/09:00am 31.0 31.9 15.0 38 9.8 E 4 9 2 5 1015.6 1015.5 0.0
25/08:30am 28.6 31.5 18.1 53 6.7 CALM 0 4 0 2 1015.7 1015.6 0.0
25/08:00am 26.4 29.6 19.8 67 4.3 WNW 2 6 1 3 1015.6 1015.5 0.0
25/07:30am 24.8 28.6 21.7 83 2.1 W 4 6 2 3 1015.4 1015.3 0.0
25/07:00am 22.6 27.4 22.1 97 0.3 CALM 0 0 0 0 1015.2 1015.1 0.0
25/06:30am 21.4 25.3 21.1 98 0.2 W 2 7 1 4 1014.7 1014.6 0.0
25/06:00am 20.4 24.2 20.1 98 0.2 NW 0 0 0 0 1014.3 1014.2 0.0
25/05:30am 21.0 25.1 20.7 98 0.2 CALM 0 0 0 0 1014.0 1013.9 0.0
25/05:00am 21.0 24.5 20.3 96 0.5 SW 2 4 1 2 1014.0 1013.9 0.0
25/04:30am 21.4 25.2 20.2 93 0.8 CALM 0 0 0 0 1013.7 1013.6 0.0
25/04:00am 23.0 26.8 21.6 92 0.9 NNE 4 4 2 2 1013.5 1013.4 0.0
25/03:30am 23.3 27.1 21.6 90 1.1 NNE 4 6 2 3 1013.4 1013.3 0.0
25/03:00am 23.4 27.0 21.3 88 1.4 NNE 4 6 2 3 1013.3 1013.2 0.0
25/02:30am 23.9 27.4 21.8 88 1.4 ENE 6 9 3 5 1013.3 1013.2 0.0
25/02:00am 24.2 27.7 21.9 87 1.5 ENE 6 7 3 4 1013.8 1013.7 0.0
25/01:30am 24.5 28.0 21.8 85 1.8 ENE 6 7 3 4 1014.1 1014.0 0.0
25/01:00am 24.9 28.3 22.0 84 1.9 E 7 11 4 6 1014.6 1014.5 0.0
25/12:30am 25.3 28.4 22.2 83 2.1 E 9 13 5 7 1014.8 1014.7 0.0
25/12:00am 25.6 28.7 22.1 81 2.3 ENE 9 13 5 7 1015.0 1014.9 0.0
 
Date/Time
CST
Temp
°C
App
Temp
°C
Dew
Point
Rel
Hum
%
Delta-T
°C
Wind Press
QNH
hPa
Press
MSL
hPa
Rain
since 9 am
mm
Dir
 
Spd
km/h
Gust
km/h
Spd
kts
Gust
kts
24/11:30pm 25.7 28.3 22.0 80 2.5 NNE 11 15 6 8 1014.9 1014.8 0.0
24/11:00pm 25.9 29.0 22.2 80 2.5 NE 9 15 5 8 1015.0 1014.9 0.0
24/10:30pm 26.0 29.0 21.9 78 2.7 E 9 13 5 7 1015.5 1015.4 0.0
24/10:00pm 26.3 29.1 21.5 75 3.2 E 9 13 5 7 1015.0 1014.9 0.0
24/09:30pm 26.6 28.5 21.4 73 3.5 E 13 17 7 9 1014.7 1014.6 0.0
24/09:00pm 27.0 28.8 21.1 70 3.9 E 13 17 7 9 1014.4 1014.3 0.0
24/08:30pm 27.5 28.8 20.8 67 4.4 E 15 20 8 11 1014.0 1013.9 0.0
24/08:00pm 27.9 29.5 19.9 61 5.2 E 11 15 6 8 1013.6 1013.5 0.0
24/07:30pm 28.4 29.7 19.3 57 5.9 E 11 17 6 9 1013.2 1013.1 0.0
24/07:00pm 29.0 29.4 19.0 54 6.5 E 15 22 8 12 1012.8 1012.7 0.0
24/06:30pm 29.9 29.9 18.0 48 7.6 E 15 20 8 11 1012.5 1012.4 0.0
24/06:00pm 31.1 30.6 17.8 45 8.5 E 17 24 9 13 1011.9 1011.8 0.0
24/05:30pm 32.0 30.7 16.7 40 9.7 E 19 28 10 15 1011.5 1011.4 0.0
24/05:00pm 32.7 31.1 16.5 37 10.2 E 20 28 11 15 1011.3 1011.2 0.0
24/04:30pm 33.6 31.4 16.0 34 11.1 E 22 35 12 19 1011.2 1011.1 0.0
24/04:00pm 34.7 31.8 15.1 31 12.2 E 24 33 13 18 1010.9 1010.8 0.0
24/03:30pm 35.7 32.1 13.2 26 13.7 E 24 39 13 21 1010.9 1010.8 0.0
24/03:15pm 35.8 29.4 5.1 15 16.5 E 28 46 15 25 1011.0 1010.9 0.0
24/03:00pm 36.3 30.2 4.6 14 17.0 ESE 26 41 14 22 1010.9 1010.8 0.0
24/02:30pm 37.1 31.5 5.2 14 17.3 E 24 37 13 20 1011.1 1011.0 0.0
24/02:03pm 37.0 30.4 4.0 13 17.6 E 28 48 15 26 1011.2 1011.1 0.0
24/02:00pm 37.0 30.7 4.0 13 17.6 ENE 26 39 14 21 1011.2 1011.1 0.0
24/01:30pm 37.0 31.0 5.1 14 17.3 ENE 26 41 14 22 1011.7 1011.6 0.0
24/01:00pm 37.1 32.0 6.2 15 17.0 E 22 35 12 19 1012.2 1012.1 0.0
24/12:30pm 36.1 30.3 6.3 16 16.4 E 26 41 14 22 1012.8 1012.7 0.0
24/12:00pm 36.8 32.5 10.9 21 15.3 ENE 24 33 13 18 1013.0 1012.9 0.0
24/11:30am 36.6 31.9 7.6 17 16.3 E 22 32 12 17 1013.4 1013.3 0.0
24/11:00am 36.1 31.1 6.3 16 16.4 E 22 35 12 19 1013.8 1013.7 0.0
24/10:30am 34.6 30.8 9.8 22 14.3 ENE 20 32 11 17 1014.3 1014.2 0.0
24/10:00am 33.9 31.2 12.8 28 12.7 ENE 19 28 10 15 1014.6 1014.5 0.0
24/09:30am 32.3 29.8 14.0 33 11.1 NE 20 30 11 16 1015.0 1014.9 0.0
24/09:00am 30.1 31.4 19.2 52 7.1 E 11 15 6 8 1015.3 1015.2 0.0
24/08:30am 27.8 31.6 20.9 66 4.6 SE 2 6 1 3 1015.4 1015.3 0.0
24/08:00am 26.6 30.5 21.8 75 3.2 E 4 7 2 4 1015.2 1015.1 0.0
24/07:30am 24.9 29.6 22.0 84 1.9 CALM 0 4 0 2 1014.8 1014.7 0.0
24/07:00am 22.6 27.3 21.9 96 0.5 CALM 0 0 0 0 1014.6 1014.5 0.0
24/06:30am 21.1 25.0 20.3 95 0.5 CALM 0 0 0 0 1014.2 1014.1 0.0
24/06:00am 21.4 25.3 21.1 98 0.2 SSW 2 2 1 1 1013.9 1013.8 0.0
24/05:30am 21.5 25.7 21.0 97 0.3 CALM 0 0 0 0 1013.6 1013.5 0.0
24/05:00am 21.9 25.3 21.6 98 0.2 SSW 6 6 3 3 1013.3 1013.2 0.0
24/04:30am 22.0 25.6 21.3 96 0.5 SSW 4 6 2 3 1013.1 1013.0 0.0
24/04:00am 22.2 26.3 20.8 92 0.9 CALM 0 0 0 0 1012.8 1012.7 0.0
24/03:30am 22.6 26.7 20.7 89 1.2 CALM 0 0 0 0 1012.7 1012.6 0.0
24/03:00am 23.9 27.6 21.4 86 1.6 E 4 6 2 3 1012.5 1012.4 0.0
24/02:30am 24.3 27.6 21.8 86 1.7 NNE 7 9 4 5 1012.6 1012.5 0.0
24/02:00am 24.7 28.4 22.6 88 1.4 NE 7 11 4 6 1013.1 1013.0 0.0
24/01:30am 25.2 28.1 22.5 85 1.8 E 11 17 6 9 1013.7 1013.6 0.0
24/01:00am 25.3 28.4 22.2 83 2.1 E 9 13 5 7 1014.0 1013.9 0.0
24/12:30am 25.6 29.1 22.1 81 2.3 E 7 11 4 6 1014.2 1014.1 0.0
24/12:00am 25.8 28.5 22.1 80 2.5 ENE 11 15 6 8 1014.4 1014.3 0.0
 
Date/Time
CST
Temp
°C
App
Temp
°C
Dew
Point
Rel
Hum
%
Delta-T
°C
Wind Press
QNH
hPa
Press
MSL
hPa
Rain
since 9 am
mm
Dir
 
Spd
km/h
Gust
km/h
Spd
kts
Gust
kts
23/11:30pm 26.1 28.4 22.0 78 2.7 ENE 13 17 7 9 1014.7 1014.6 0.0
23/11:00pm 26.3 29.3 21.9 77 2.9 ENE 9 13 5 7 1014.7 1014.6 0.0
23/10:30pm 26.5 29.4 21.7 75 3.2 ENE 9 15 5 8 1014.8 1014.7 0.0
23/10:00pm 26.8 29.0 21.8 74 3.3 ENE 13 20 7 11 1014.7 1014.6 0.0
23/09:30pm 27.1 29.0 21.4 71 3.8 ENE 13 20 7 11 1014.3 1014.2 0.0
23/09:00pm 27.5 29.9 20.8 67 4.4 E 9 15 5 8 1013.8 1013.7 0.0
23/08:30pm 28.1 29.6 20.6 63 4.9 E 13 17 7 9 1013.5 1013.4 0.0
23/08:00pm 28.9 30.2 19.2 55 6.3 E 11 17 6 9 1013.1 1013.0 0.0
23/07:30pm 29.9 29.5 16.3 43 8.5 E 13 19 7 10 1012.7 1012.6 0.0
23/07:00pm 30.9 28.8 13.7 35 10.4 E 17 24 9 13 1012.3 1012.2 0.0
23/06:30pm 31.7 29.7 11.5 29 11.8 E 13 19 7 10 1011.8 1011.7 0.0
23/06:00pm 32.8 29.3 10.8 26 12.8 E 20 32 11 17 1011.4 1011.3 0.0
23/05:30pm 33.7 29.3 10.3 24 13.5 E 24 30 13 16 1011.0 1010.9 0.0
23/05:00pm 34.7 30.5 9.9 22 14.3 E 22 32 12 17 1010.5 1010.4 0.0
23/04:30pm 35.3 30.5 7.4 18 15.5 E 22 37 12 20 1010.3 1010.2 0.0
23/04:00pm 35.4 30.6 9.0 20 15.1 E 24 37 13 20 1010.4 1010.3 0.0
23/03:30pm 35.8 31.1 7.8 18 15.7 E 22 35 12 19 1010.5 1010.4 0.0
23/03:00pm 35.9 32.0 9.4 20 15.3 ENE 20 37 11 20 1010.5 1010.4 0.0
23/02:30pm 36.7 32.6 8.5 18 16.1 E 20 32 11 17 1010.7 1010.6 0.0
23/02:00pm 36.5 32.0 8.4 18 16.0 E 22 39 12 21 1011.0 1010.9 0.0
23/01:30pm 36.3 31.9 9.0 19 15.7 ENE 22 39 12 21 1011.3 1011.2 0.0
23/01:00pm 37.2 32.2 8.1 17 16.5 ENE 24 30 13 16 1011.6 1011.5 0.0
23/12:30pm 37.5 32.9 8.3 17 16.7 E 22 32 12 17 1011.9 1011.8 0.0
23/12:00pm 37.2 31.4 4.2 13 17.7 ESE 24 37 13 20 1012.5 1012.4 0.0
23/11:30am 36.7 32.2 6.8 16 16.6 E 20 28 11 15 1013.1 1013.0 0.0
23/11:00am 36.6 31.3 4.8 14 17.1 E 22 35 12 19 1013.5 1013.4 0.0
23/10:30am 36.2 31.4 5.5 15 16.7 E 20 56 11 30 1013.9 1013.8 0.0
23/10:00am 36.0 31.7 7.1 17 16.1 E 19 28 10 15 1014.2 1014.1 0.0
23/09:30am 34.5 29.9 8.3 20 14.7 ENE 22 32 12 17 1014.4 1014.3 0.0
23/09:00am 33.4 31.3 12.4 28 12.5 ENE 15 24 8 13 1014.5 1014.4 0.0
23/08:30am 29.8 32.5 19.5 54 6.7 NE 4 6 2 3 1014.7 1014.6 0.0
23/08:00am 26.7 30.4 21.5 73 3.5 NNW 4 6 2 3 1014.7 1014.6 0.0
23/07:30am 24.5 28.7 21.8 85 1.8 NNW 2 4 1 2 1014.5 1014.4 0.0
23/07:00am 23.1 28.3 22.8 98 0.2 CALM 0 0 0 0 1014.1 1014.0 0.0
23/06:30am 20.7 24.6 20.4 98 0.2 CALM 0 0 0 0 1013.8 1013.7 0.0
23/06:00am 20.3 23.9 19.8 97 0.3 CALM 0 0 0 0 1013.6 1013.5 0.0
23/05:30am 21.0 24.3 20.7 98 0.2 N 4 4 2 2 1013.3 1013.2 0.0
23/05:00am 21.5 24.7 21.2 98 0.2 NE 6 7 3 4 1013.0 1012.9 0.0
23/04:30am 20.9 24.3 20.2 96 0.4 E 2 4 1 2 1012.9 1012.8 0.0
23/04:00am 21.1 24.9 20.1 94 0.6 CALM 0 0 0 0 1012.7 1012.6 0.0
23/03:30am 22.3 25.7 20.2 88 1.4 NE 2 4 1 2 1012.6 1012.5 0.0
23/03:00am 23.1 26.4 21.4 90 1.1 NE 6 7 3 4 1012.6 1012.5 0.0
23/02:30am 23.4 26.7 21.5 89 1.3 NE 6 7 3 4 1012.9 1012.8 0.0
23/02:00am 24.0 27.4 21.7 87 1.5 NNE 6 6 3 3 1013.0 1012.9 0.0
23/01:30am 24.8 28.3 22.1 85 1.8 ENE 7 15 4 8 1013.2 1013.1 0.0
23/01:00am 24.9 28.0 22.2 85 1.8 NE 9 15 5 8 1013.3 1013.2 0.0
23/12:30am 25.0 28.3 21.9 83 2.1 NNE 7 11 4 6 1013.9 1013.8 0.0
23/12:00am 25.2 28.2 21.9 82 2.2 NE 9 13 5 7 1014.3 1014.2 0.0
 
Date/Time
CST
Temp
°C
App
Temp
°C
Dew
Point
Rel
Hum
%
Delta-T
°C
Wind Press
QNH
hPa
Press
MSL
hPa
Rain
since 9 am
mm
Dir
 
Spd
km/h
Gust
km/h
Spd
kts
Gust
kts
22/11:30pm 25.4 28.7 21.9 81 2.3 ENE 7 13 4 7 1014.4 1014.3 0.0
22/11:00pm 25.8 28.7 21.7 78 2.7 ENE 9 13 5 7 1014.6 1014.5 0.0
22/10:30pm 26.1 28.5 20.9 73 3.4 ENE 9 13 5 7 1014.5 1014.4 0.0
22/10:00pm 26.5 28.1 21.5 74 3.3 ENE 15 22 8 12 1014.4 1014.3 0.0
22/09:30pm 27.1 29.1 20.7 68 4.2 E 11 17 6 9 1014.5 1014.4 0.0
22/09:00pm 27.9 29.1 19.1 58 5.7 E 11 17 6 9 1014.2 1014.1 0.0
22/08:30pm 28.6 28.4 15.8 45 7.9 E 11 17 6 9 1013.8 1013.7 0.0
22/08:00pm 29.7 28.0 11.2 31 10.7 E 11 15 6 8 1013.4 1013.3 0.0
22/07:30pm 30.7 27.6 9.0 26 12.1 E 15 20 8 11 1013.1 1013.0 0.0
22/07:00pm 31.3 28.4 8.3 24 12.7 E 13 17 7 9 1012.7 1012.6 0.0
22/06:30pm 32.2 28.4 9.1 24 13.0 E 19 28 10 15 1012.3 1012.2 0.0
22/06:00pm 33.3 29.6 8.0 21 14.1 E 17 28 9 15 1011.9 1011.8 0.0
22/05:30pm 34.1 29.8 7.2 19 14.8 E 19 26 10 14 1011.5 1011.4 0.0

Other Formats:

Comma delimited format used in spreadsheet applications
http://www.bom.gov.au/fwo/IDD60801/IDD60801.94106.axf

JavaScript Object Notation format (JSON) in row-major order
http://www.bom.gov.au/fwo/IDD60801/IDD60801.94106.json